McGrath, AK

11:09 PM AKST on February 05, 2016 (GMT -0900)
Nikolai AP, Nikolai, AK | | Change Station
CLOSE
Current Station
Airport
Location: Nikolai AP, Nikolai, AK,
Elevation: 413 ft
Nearby Weather Stations

Elev 413 ft 63.02 °N, 154.36 °W | Updated 13 minutes ago

Overcast
Overcast
14 °F
Feels Like 8 °F
N
4
Wind Variable Wind from NE

Today
High -- | Low -- °F
--% Chance of Precip.
Yesterday
High -- | Low -- °F
Precip. -- in
Pressure 29.46 in
Visibility 10.0 miles
Clouds Overcast 5000 ft
Windchill 8 °F
Dew Point 4 °F
Humidity 65%
Rainfall 0.00 in
Snow Depth Not available.
9:40 AM 5:28 PM
Waning Crescent, 7% visible
METAR PAFS 060756Z AUTO 05003KT 10SM OVC050 M10/M16 A2941 RMK AO2 TSNO T11001155 UPB07E19B36E45SNB0659E07 P0000 SLP974 $
Pressure 29.46 in
Visibility 10.0 miles
Clouds Overcast 5000 ft
Windchill 8 °F
Dew Point 4 °F
Humidity 65%
Rainfall 0.00 in
Snow Depth Not available.
9:40 AM 5:28 PM
Waning Crescent, 7% visible
METAR PAFS 060756Z AUTO 05003KT 10SM OVC050 M10/M16 A2941 RMK AO2 TSNO T11001155 UPB07E19B36E45SNB0659E07 P0000 SLP974 $

10-Day Weather Forecast

Almanac

Astronomy

Feb. 05, 2016 Rise Set
Actual Time
Civil Twilight
Nautical Twilight
Astronomical Twilight
Moon
Length of Visible Light
Length of Day
Tomorrow will be .
, % of the Moon is Illuminated

Today's Extremes

State Highs State Lows

Community

WunderPhotos

Upload Photos

1,890,933 photos uploaded!

WunderBlog® & News

Nearby

Air Quality

  Air Quality AQ Index Pollutant
Not available.

Snow Depth

Station Depth Elevation

Earthquake Activity

City Distance Mag. Time & Date
Minimum magnitude displayed is 2.5.

Coastal Water Temperatures

Place Temperature

Stations

Nearby Weather Stations

Station Location Temp. Windchill Dew Point Humidity Wind Precip. Elev Updated Type
                   

Watches & Warnings

There are currently no watches in effect.